Aveiro, Brazil
Current Conditions -  °F | °C
As of 1:00 AM on Sunday 25 Jan 2015 (Local Time) from SBSN Reporting Station
Light Rain Light Rain  
Wind Chill: 73°   Ceiling: 10000
Heat Index: 73°   Visibility: 6mi
Dew Point: 72°   Wind: 2mph
Humidity: 94%   Direction: 130°SE
Pressure: 29.88"   Gusts: NA
Location:  3.61°S, 55.33°W
Report Text: SBSN 250400Z 13002KT 9999 -RA SCT010 OVC100 23/22 Q1012
Loading
Personal Weather Stations






























Interactive Weather Map New forecast layout! Learn more

10-Day Weather Forecast

Advertisements
Track Severe Weather on mobile